createdAt,value
2022-12-11T00:03:30.479Z,0.2
2022-12-11T00:13:31.294Z,0
2022-12-11T00:23:31.701Z,-0.1
2022-12-11T00:33:32.750Z,-0.2
2022-12-11T00:43:32.847Z,0
2022-12-11T00:53:33.428Z,-0.1
2022-12-11T01:03:33.689Z,-0.1
2022-12-11T01:23:34.020Z,0
2022-12-11T01:33:34.480Z,0.1
2022-12-11T01:53:35.260Z,0.2
2022-12-11T02:03:35.335Z,0.2
2022-12-11T02:13:35.901Z,0.3
2022-12-11T02:23:35.932Z,0.2
2022-12-11T02:33:36.919Z,0.3
2022-12-11T02:43:37.648Z,0.4
2022-12-11T02:53:37.848Z,0.4
2022-12-11T03:03:38.874Z,0.4
2022-12-11T03:13:39.511Z,0.4
2022-12-11T03:23:40.283Z,0.4
2022-12-11T03:33:40.432Z,0.4
2022-12-11T03:43:41.253Z,0.5
2022-12-11T03:53:41.566Z,0.4
2022-12-11T04:03:42.551Z,0.4
2022-12-11T04:13:43.180Z,0.5
2022-12-11T04:23:43.636Z,0.4
2022-12-11T04:33:44.621Z,0.5
2022-12-11T04:43:44.716Z,0.5
2022-12-11T04:53:44.984Z,0.5
2022-12-11T05:03:45.661Z,0.4
2022-12-11T05:13:46.517Z,0.4
2022-12-11T05:23:46.652Z,0.6
2022-12-11T05:33:47.079Z,0.6
2022-12-11T05:43:47.815Z,0.8
2022-12-11T05:53:48.562Z,0.7
2022-12-11T06:03:48.942Z,0.7
2022-12-11T06:13:49.376Z,0.8
2022-12-11T06:23:49.628Z,0.8
2022-12-11T06:33:50.576Z,0.8
2022-12-11T06:43:50.909Z,0.8
2022-12-11T06:53:51.602Z,0.9
2022-12-11T07:03:52.541Z,0.9
2022-12-11T07:13:52.990Z,0.9
2022-12-11T07:33:54.559Z,0.8
2022-12-11T07:43:55.465Z,0.9
2022-12-11T07:53:55.639Z,0.9
2022-12-11T08:03:56.375Z,1
2022-12-11T08:13:57.159Z,0.8
2022-12-11T08:23:57.963Z,1
2022-12-11T08:33:58.264Z,1.1
2022-12-11T08:43:59.106Z,1.1
2022-12-11T08:53:59.562Z,1
2022-12-11T09:03:59.925Z,1.2
2022-12-11T09:14:05.382Z,1.2
2022-12-11T09:24:01.547Z,1.3
2022-12-11T09:34:02.191Z,1.4
2022-12-11T09:44:02.541Z,1.3
2022-12-11T09:54:02.630Z,1.3
2022-12-11T10:04:03.223Z,1.3
2022-12-11T10:24:03.660Z,1.3
2022-12-11T10:34:03.760Z,1.4
2022-12-11T10:44:03.872Z,1.3
2022-12-11T11:04:05.082Z,1.4
2022-12-11T11:24:05.744Z,1.3
2022-12-11T11:44:06.695Z,1.4
2022-12-11T12:34:09.020Z,1.4
2022-12-11T12:44:09.422Z,1.4
2022-12-11T12:54:12.407Z,1.4
2022-12-11T13:04:20.851Z,1.4
2022-12-11T13:14:11.282Z,1.5
2022-12-11T13:24:11.926Z,1.5
2022-12-11T13:34:12.397Z,1.5
2022-12-11T13:44:12.921Z,1.5
2022-12-11T13:54:16.623Z,1.5
2022-12-11T14:04:14.241Z,1.4
2022-12-11T14:14:14.521Z,1.5
2022-12-11T14:34:15.621Z,1.5
2022-12-11T15:14:17.663Z,1.5
2022-12-11T15:34:18.941Z,1.5
2022-12-11T15:54:19.547Z,1.4
2022-12-11T16:04:20.416Z,1.4
2022-12-11T16:14:20.571Z,1.4
2022-12-11T16:24:21.068Z,1.4
2022-12-11T16:34:21.916Z,1.3
2022-12-11T16:54:23.208Z,1.4
2022-12-11T17:14:30.349Z,1.5
2022-12-11T17:24:30.809Z,1.6
2022-12-11T17:34:36.304Z,1.4
2022-12-11T17:54:32.143Z,1.3
2022-12-11T18:04:32.777Z,1.3
2022-12-11T18:14:33.722Z,1.3
2022-12-11T18:24:33.882Z,1.3
2022-12-11T18:34:34.364Z,1.3
2022-12-11T18:44:34.546Z,1.3
2022-12-11T18:54:35.448Z,1.2
2022-12-11T19:04:36.315Z,1.5
2022-12-11T19:14:36.664Z,1.4
2022-12-11T19:24:37.515Z,1.3
2022-12-11T19:34:38.151Z,1.5
2022-12-11T19:44:38.726Z,1.3
2022-12-11T19:54:39.039Z,1.3
2022-12-11T20:14:39.563Z,1.1
2022-12-11T20:24:40.169Z,1.1
2022-12-11T20:34:40.464Z,1
2022-12-11T20:44:45.601Z,1.2
2022-12-11T20:54:41.967Z,1
2022-12-11T21:04:42.863Z,0.9
2022-12-11T21:14:42.954Z,0.9
2022-12-11T21:24:43.101Z,1
2022-12-11T21:34:43.229Z,0.9
2022-12-11T21:54:44.887Z,0.9
2022-12-11T22:04:45.979Z,0.9
2022-12-11T22:24:47.006Z,0.9
2022-12-11T22:34:47.594Z,0.9
2022-12-11T22:44:47.892Z,1
2022-12-11T22:54:48.122Z,1
2022-12-11T23:04:48.980Z,1
2022-12-11T23:14:49.268Z,1
2022-12-11T23:24:50.300Z,0.9
2022-12-11T23:34:50.906Z,1
2022-12-11T23:44:51.397Z,0.9
2022-12-11T23:54:52.296Z,0.9
